Cape Charles — WDI5730 — position and weather

sailwx.info

Track history (hours):
 
Tides and Currents Weather Stations Pressure Air Temp Water Temp Dewpoint Dewpoint Depression Visibility Wind Speed Wind Dir Waves Ship Positions

Cape Charles

Owner: Virginia Pilot Boat Corporation, VIRGINIA BEACH, VA. More information available from US FCC via Universal Licensing System and Coast Guard Vessel Documentation Center.

Last reported at 2018-Apr-25 23:34 UTC. Time now 2018-Apr-26 23:01 UTC.
Position N 36°54' W 076°05'.

Length 13 m; draft 1.5 m.

Type: Pilot. MMSI: 367711530.

Date/timePositionNaut miles runAvg speedWind from/ knotsBaromVisibWave heightAir tempDewpointWater temp
2018-Apr-25 23:34N 36°54' W 076°05'0 0.0
2018-Apr-25 23:25N 36°54' W 076°05'0 0.0
2018-Apr-25 23:00N 36°54' W 076°05'0 0.0
2018-Apr-25 22:28N 36°54' W 076°05'0 0.0
2018-Apr-25 21:55N 36°54' W 076°05'0 0.0
2018-Apr-25 21:30N 36°54' W 076°05'0 0.0
2018-Apr-25 20:55N 36°54' W 076°05'0 0.0
2018-Apr-25 20:03N 36°54' W 076°05'0 0.0
2018-Apr-25 19:21N 36°54' W 076°05'0 0.0
2018-Apr-25 18:53N 36°54' W 076°05'0 0.0
2018-Apr-25 18:30N 36°54' W 076°05'0 0.0
2018-Apr-25 17:57N 36°54' W 076°05'0 0.0
2018-Apr-25 17:30N 36°54' W 076°05'0 0.1
2018-Apr-25 16:27N 36°54' W 076°05'2 1.6
2018-Apr-25 15:11N 36°56' W 076°06'2 0.1
2018-Apr-24 23:53N 36°54' W 076°05'0 0.0
2018-Apr-24 22:00N 36°54' W 076°05'0 0.0
2018-Apr-24 20:59N 36°54' W 076°05'0 0.0
2018-Apr-24 20:25N 36°54' W 076°05'0 0.0
2018-Apr-24 19:55N 36°54' W 076°05'0 0.0
2018-Apr-24 18:53N 36°54' W 076°05'0 0.0
2018-Apr-24 18:30N 36°54' W 076°05'0 0.0
2018-Apr-24 17:49N 36°54' W 076°05'0 0.0
2018-Apr-24 17:27N 36°54' W 076°05'0 0.0
2018-Apr-24 16:38N 36°54' W 076°05'0 0.0
2018-Apr-24 16:25N 36°54' W 076°05'0 0.0
2018-Apr-23 20:43N 36°54' W 076°05'0 0.0
2018-Apr-23 20:27N 36°54' W 076°05'0 0.0
2018-Apr-23 19:52N 36°54' W 076°05'0 0.0
2018-Apr-23 18:51N 36°54' W 076°05'0 0.0
2018-Apr-23 17:09N 36°54' W 076°05'0 0.0
2018-Apr-23 16:57N 36°54' W 076°05'0 0.0
2018-Apr-22 18:34N 36°54' W 076°05'116.2
2018-Apr-22 18:30N 36°55' W 076°05'7 8.2
2018-Apr-22 17:38N 36°56' W 075°56'0 2.1
2018-Apr-22 17:28N 36°55' W 075°56'7 4.1
2018-Apr-22 15:39N 36°54' W 076°05'317.8
2018-Apr-22 15:30N 36°57' W 076°05'1 0.3
2018-Apr-22 12:19N 36°58' W 076°05'4 1.1
2018-Apr-22 09:07N 36°54' W 076°05'2 1.0
2018-Apr-22 07:08N 36°56' W 076°05'2 0.1
2018-Apr-21 09:27N 36°54' W 076°05'0 0.0
2018-Apr-21 08:01N 36°54' W 076°05'0 0.3
2018-Apr-21 07:47N 36°54' W 076°05'410.5
2018-Apr-21 07:24N 36°57' W 076°02'4 5.6
2018-Apr-21 06:40N 36°54' W 076°06'0 0.0
2018-Apr-20 15:32N 36°54' W 076°05'0 0.2
2018-Apr-20 15:27N 36°54' W 076°05'0 0.0
2018-Apr-20 15:00N 36°54' W 076°05'0 0.0
2018-Apr-20 14:24N 36°54' W 076°05'0 0.0
2018-Apr-20 13:59N 36°54' W 076°05'0 0.0
2018-Apr-20 13:29N 36°54' W 076°05'0 0.0
2018-Apr-20 12:59N 36°54' W 076°05'0 0.0
2018-Apr-20 11:47N 36°54' W 076°05'0 0.0
2018-Apr-20 11:27N 36°54' W 076°05'0 0.0
2018-Apr-20 11:00N 36°54' W 076°05'0 0.0
2018-Apr-19 23:35N 36°54' W 076°05'0 0.0
2018-Apr-19 23:30N 36°54' W 076°05'0 0.0
2018-Apr-19 20:58N 36°54' W 076°05'0 0.0
2018-Apr-19 20:25N 36°54' W 076°05'0 0.0
2018-Apr-19 17:41N 36°54' W 076°05'0 0.0
2018-Apr-19 17:28N 36°54' W 076°05'0 0.0
2018-Apr-19 17:00N 36°54' W 076°05'0 0.0
2018-Apr-19 16:29N 36°54' W 076°05'0 0.0
2018-Apr-19 16:00N 36°54' W 076°05'0 0.0
2018-Apr-19 15:30N 36°54' W 076°05'0 0.0
2018-Apr-19 15:00N 36°54' W 076°05'0 0.0
2018-Apr-19 14:28N 36°54' W 076°05'0 0.0
2018-Apr-19 13:44N 36°54' W 076°05'0 0.0
2018-Apr-19 13:26N 36°54' W 076°05'0 0.0
2018-Apr-19 13:00N 36°54' W 076°05'0 0.0
2018-Apr-19 12:25N 36°54' W 076°05'0 0.0
2018-Apr-19 11:51N 36°54' W 076°05'0 0.0
2018-Apr-19 11:22N 36°54' W 076°05'0 0.0
2018-Apr-17 20:18N 36°54' W 076°05'0 0.0
2018-Apr-17 20:00N 36°54' W 076°05'0 0.0
2018-Apr-17 19:24N 36°54' W 076°05'0 0.0
2018-Apr-17 18:54N 36°54' W 076°05'0 0.0
2018-Apr-17 16:44N 36°54' W 076°05'0 0.0
2018-Apr-17 16:25N 36°54' W 076°05'0 0.0
2018-Apr-17 15:58N 36°54' W 076°05'0 0.0
2018-Apr-17 13:40N 36°54' W 076°05'0 0.0
2018-Apr-17 13:12N 36°54' W 076°05'0 0.0
2018-Apr-17 12:48N 36°54' W 076°05'0 0.0
2018-Apr-16 23:29N 36°54' W 076°05'0 0.0
2018-Apr-16 22:57N 36°54' W 076°05'0 0.0
2018-Apr-16 22:28N 36°54' W 076°05'0 0.0
2018-Apr-16 21:58N 36°54' W 076°05'0 0.0
2018-Apr-16 21:27N 36°54' W 076°05'0 0.0
2018-Apr-16 20:54N 36°54' W 076°05'0 0.0
2018-Apr-15 23:44N 36°54' W 076°05'  
Track history (hours):
 
Tides and Currents Weather Stations Pressure Air Temp Water Temp Dewpoint Dewpoint Depression Visibility Wind Speed Wind Dir Waves Ship Positions

Cape Charles

Owner: Virginia Pilot Boat Corporation, VIRGINIA BEACH, VA. More information available from US FCC via Universal Licensing System and Coast Guard Vessel Documentation Center.

Last reported at 2018-Apr-25 23:34 UTC. Time now 2018-Apr-26 23:01 UTC.
Position N 36°54' W 076°05'.

Length 13 m; draft 1.5 m.

Type: Pilot. MMSI: 367711530.

Date/timePositionNaut miles runAvg speedWind from/ knotsBaromVisibWave heightAir tempDewpointWater temp
2018-Apr-25 23:34N 36°54' W 076°05'0 0.0
2018-Apr-25 23:25N 36°54' W 076°05'0 0.0
2018-Apr-25 23:00N 36°54' W 076°05'0 0.0
2018-Apr-25 22:28N 36°54' W 076°05'0 0.0
2018-Apr-25 21:55N 36°54' W 076°05'0 0.0
2018-Apr-25 21:30N 36°54' W 076°05'0 0.0
2018-Apr-25 20:55N 36°54' W 076°05'0 0.0
2018-Apr-25 20:03N 36°54' W 076°05'0 0.0
2018-Apr-25 19:21N 36°54' W 076°05'0 0.0
2018-Apr-25 18:53N 36°54' W 076°05'0 0.0
2018-Apr-25 18:30N 36°54' W 076°05'0 0.0
2018-Apr-25 17:57N 36°54' W 076°05'0 0.0
2018-Apr-25 17:30N 36°54' W 076°05'0 0.1
2018-Apr-25 16:27N 36°54' W 076°05'2 1.6
2018-Apr-25 15:11N 36°56' W 076°06'2 0.1
2018-Apr-24 23:53N 36°54' W 076°05'0 0.0
2018-Apr-24 22:00N 36°54' W 076°05'0 0.0
2018-Apr-24 20:59N 36°54' W 076°05'0 0.0
2018-Apr-24 20:25N 36°54' W 076°05'0 0.0
2018-Apr-24 19:55N 36°54' W 076°05'0 0.0
2018-Apr-24 18:53N 36°54' W 076°05'0 0.0
2018-Apr-24 18:30N 36°54' W 076°05'0 0.0
2018-Apr-24 17:49N 36°54' W 076°05'0 0.0
2018-Apr-24 17:27N 36°54' W 076°05'0 0.0
2018-Apr-24 16:38N 36°54' W 076°05'0 0.0
2018-Apr-24 16:25N 36°54' W 076°05'0 0.0
2018-Apr-23 20:43N 36°54' W 076°05'0 0.0
2018-Apr-23 20:27N 36°54' W 076°05'0 0.0
2018-Apr-23 19:52N 36°54' W 076°05'0 0.0
2018-Apr-23 18:51N 36°54' W 076°05'0 0.0
2018-Apr-23 17:09N 36°54' W 076°05'0 0.0
2018-Apr-23 16:57N 36°54' W 076°05'0 0.0
2018-Apr-22 18:34N 36°54' W 076°05'116.2
2018-Apr-22 18:30N 36°55' W 076°05'7 8.2
2018-Apr-22 17:38N 36°56' W 075°56'0 2.1
2018-Apr-22 17:28N 36°55' W 075°56'7 4.1
2018-Apr-22 15:39N 36°54' W 076°05'317.8
2018-Apr-22 15:30N 36°57' W 076°05'1 0.3
2018-Apr-22 12:19N 36°58' W 076°05'4 1.1
2018-Apr-22 09:07N 36°54' W 076°05'2 1.0
2018-Apr-22 07:08N 36°56' W 076°05'2 0.1
2018-Apr-21 09:27N 36°54' W 076°05'0 0.0
2018-Apr-21 08:01N 36°54' W 076°05'0 0.3
2018-Apr-21 07:47N 36°54' W 076°05'410.5
2018-Apr-21 07:24N 36°57' W 076°02'4 5.6
2018-Apr-21 06:40N 36°54' W 076°06'0 0.0
2018-Apr-20 15:32N 36°54' W 076°05'0 0.2
2018-Apr-20 15:27N 36°54' W 076°05'0 0.0
2018-Apr-20 15:00N 36°54' W 076°05'0 0.0
2018-Apr-20 14:24N 36°54' W 076°05'0 0.0
2018-Apr-20 13:59N 36°54' W 076°05'0 0.0
2018-Apr-20 13:29N 36°54' W 076°05'0 0.0
2018-Apr-20 12:59N 36°54' W 076°05'0 0.0
2018-Apr-20 11:47N 36°54' W 076°05'0 0.0
2018-Apr-20 11:27N 36°54' W 076°05'0 0.0
2018-Apr-20 11:00N 36°54' W 076°05'0 0.0
2018-Apr-19 23:35N 36°54' W 076°05'0 0.0
2018-Apr-19 23:30N 36°54' W 076°05'0 0.0
2018-Apr-19 20:58N 36°54' W 076°05'0 0.0
2018-Apr-19 20:25N 36°54' W 076°05'0 0.0
2018-Apr-19 17:41N 36°54' W 076°05'0 0.0
2018-Apr-19 17:28N 36°54' W 076°05'0 0.0
2018-Apr-19 17:00N 36°54' W 076°05'0 0.0
2018-Apr-19 16:29N 36°54' W 076°05'0 0.0
2018-Apr-19 16:00N 36°54' W 076°05'0 0.0
2018-Apr-19 15:30N 36°54' W 076°05'0 0.0
2018-Apr-19 15:00N 36°54' W 076°05'0 0.0
2018-Apr-19 14:28N 36°54' W 076°05'0 0.0
2018-Apr-19 13:44N 36°54' W 076°05'0 0.0
2018-Apr-19 13:26N 36°54' W 076°05'0 0.0
2018-Apr-19 13:00N 36°54' W 076°05'0 0.0
2018-Apr-19 12:25N 36°54' W 076°05'0 0.0
2018-Apr-19 11:51N 36°54' W 076°05'0 0.0
2018-Apr-19 11:22N 36°54' W 076°05'0 0.0
2018-Apr-17 20:18N 36°54' W 076°05'0 0.0
2018-Apr-17 20:00N 36°54' W 076°05'0 0.0
2018-Apr-17 19:24N 36°54' W 076°05'0 0.0
2018-Apr-17 18:54N 36°54' W 076°05'0 0.0
2018-Apr-17 16:44N 36°54' W 076°05'0 0.0
2018-Apr-17 16:25N 36°54' W 076°05'0 0.0
2018-Apr-17 15:58N 36°54' W 076°05'0 0.0
2018-Apr-17 13:40N 36°54' W 076°05'0 0.0
2018-Apr-17 13:12N 36°54' W 076°05'0 0.0
2018-Apr-17 12:48N 36°54' W 076°05'0 0.0
2018-Apr-16 23:29N 36°54' W 076°05'0 0.0
2018-Apr-16 22:57N 36°54' W 076°05'0 0.0
2018-Apr-16 22:28N 36°54' W 076°05'0 0.0
2018-Apr-16 21:58N 36°54' W 076°05'0 0.0
2018-Apr-16 21:27N 36°54' W 076°05'0 0.0
2018-Apr-16 20:54N 36°54' W 076°05'0 0.0
2018-Apr-15 23:44N 36°54' W 076°05'  

Dump ship's entire track history